Nearby METAR Reports

 

KPBI - West Palm Beach, Florida, USA
Distance from station: NNE 9mi, 14km
Updated: Wed, 22-Jan-2020 9:26am EST
Partly cloudy
Partly cloudy
 Wind from WNW
Wind: WNW 15 mph , 24 km/h, Gust: 23 mph , 37 km/h
Temperature: 46°F , 8°C
Wind Chill: 40°F , 4°C
Dew Point: 34°F , 1°C
Humidity: 62%
Barometer: 30.06 inHg , 1017.9 hPa
Clouds: Partly cloudy
Visibility: 10 miles , 16 km
Cloud details: Partly cloudy 1500 ft
Partly cloudy 3200 ft
2020/01/22 14:26 KPBI 221426Z 29013G20KT 10SM SCT015 SCT032 08/01 A3006 RMK AO2 T00830006
KBCT - Boca Raton, Florida, USA
Distance from station: SSE 13mi, 21km
Updated: Wed, 22-Jan-2020 8:53am EST
Clear
Clear
 Wind from NNW
Wind: NNW 23 mph , 37 km/h, Gust: 30 mph , 48 km/h
Temperature: 46°F , 8°C
Wind Chill: 38°F , 3°C
Dew Point: 36°F , 2°C
Humidity: 66%
Barometer: 30.08 inHg , 1018.6 hPa
Clouds: Clear
Visibility: 10 miles , 16 km
2020/01/22 13:53 KBCT 221353Z 33020G26KT 10SM CLR 08/02 A3008
 
KPMP - Pompano Beach, Florida, USA
Distance from station: S 22mi, 36km
Updated: Wed, 22-Jan-2020 8:53am EST
Clear
Clear
 Wind from WNW
Wind: WNW 17 mph , 28 km/h, Gust: 26 mph , 43 km/h
Temperature: 43°F , 6°C
Wind Chill: 35°F , 2°C
Dew Point: 34°F , 1°C
Humidity: 71%
Barometer: 30.08 inHg , 1018.6 hPa
Clouds: Clear
Visibility: 10 miles , 16 km
2020/01/22 13:53 KPMP 221353Z 30015G23KT 10SM CLR 06/01 A3008 RMK AO2 SLP186 T00610006
KFXE - Ft Lauderd/Exec, Florida, USA
Distance from station: S 25mi, 41km
Updated: Wed, 22-Jan-2020 8:53am EST
Clear
Clear
 Wind from WNW
Wind: WNW 15 mph , 24 km/h, Gust: 22 mph , 35 km/h
Temperature: 43°F , 6°C
Wind Chill: 36°F , 2°C
Dew Point: 34°F , 1°C
Humidity: 71%
Barometer: 30.08 inHg , 1018.6 hPa
Clouds: Clear
2020/01/22 13:53 KFXE 221353Z 30013G19KT CLR 06/01 A3008 RMK AO2 SLP189 T00610006
 
KFLL - Ft Lauderd/Holly, Florida, USA
Distance from station: S 35mi, 56km
Updated: Wed, 22-Jan-2020 8:53am EST
Few Clouds
Few Clouds
 Wind from NW
Wind: NW 15 mph , 24 km/h, Gust: 22 mph , 35 km/h
Temperature: 43°F , 6°C
Wind Chill: 36°F , 2°C
Dew Point: 34°F , 1°C
Humidity: 71%
Barometer: 30.08 inHg , 1018.6 hPa
Clouds: Few Clouds
Visibility: 10 miles , 16 km
Cloud details: Few Clouds 3000 ft
2020/01/22 13:53 KFLL 221353Z 31013G19KT 10SM FEW030 06/01 A3008 RMK AO2 SLP184 T00610006 $
KHWO - Hollywood, Florida, USA
Distance from station: S 39mi, 64km
Updated: Wed, 22-Jan-2020 8:53am EST
Light rain, Clear
Light rain, Clear
 Wind from WNW
Wind: WNW 15 mph , 24 km/h
Temperature: 43°F , 6°C
Wind Chill: 36°F , 2°C
Dew Point: 30°F , -1°C
Humidity: 61%
Barometer: 30.11 inHg , 1019.6 hPa
Summary: Light rain
Clouds: Clear
Visibility: 10 miles , 16 km
2020/01/22 13:53 KHWO 221353Z 30013KT 10SM -RA CLR 06/M01 A3011 RMK AO2 SLP195 P0000 T00611006 $
 
KSUA - Stuart/Witham, Florida, USA
Distance from station: N 43mi, 69km
Updated: Wed, 22-Jan-2020 8:50am EST
Partly cloudy
Partly cloudy
 Wind from WNW
Wind: WNW 14 mph , 22 km/h, Gust: 25 mph , 41 km/h
Temperature: 43°F , 6°C
Wind Chill: 36°F , 2°C
Dew Point: 32°F , 0°C
Humidity: 66%
Barometer: 30.08 inHg , 1018.6 hPa
Clouds: Partly cloudy
Visibility: 7 miles , 11 km
Cloud details: Partly cloudy 1600 ft
Partly cloudy 5000 ft
2020/01/22 13:50 KSUA 221350Z 30012G22KT 7SM SCT016 SCT050 06/00 A3008
KOPF - Miami/Opa Locka, Florida, USA
Distance from station: S 46mi, 73km
Updated: Wed, 22-Jan-2020 8:53am EST
Clear
Clear
 Wind from NW
Wind: NW 17 mph , 28 km/h
Temperature: 43°F , 6°C
Wind Chill: 35°F , 2°C
Dew Point: 32°F , 0°C
Humidity: 66%
Barometer: 30.10 inHg , 1019.3 hPa
Clouds: Clear
Visibility: 10 miles , 16 km
2020/01/22 13:53 KOPF 221353Z 31015KT 10SM CLR 06/00 A3010 RMK AO2 SLP194 T00610000
 
KMIA - Miami, Florida, USA
Distance from station: S 54mi, 86km
Updated: Wed, 22-Jan-2020 8:53am EST
Few Clouds
Few Clouds
 Wind from NW
Wind: NW 10 mph , 17 km/h, Gust: 20 mph , 31 km/h
Temperature: 45°F , 7°C
Wind Chill: 40°F , 4°C
Dew Point: 30°F , -1°C
Humidity: 57%
Barometer: 30.10 inHg , 1019.3 hPa
Clouds: Few Clouds
Visibility: 10 miles , 16 km
Cloud details: Few Clouds 3000 ft
2020/01/22 13:53 KMIA 221353Z 31009G17KT 10SM FEW030 07/M01 A3010 RMK AO2 SLP193 T00671011
KOBE - Okeechobee Cty, Florida, USA
Distance from station: NW 64mi, 104km
Updated: Wed, 22-Jan-2020 9:35am EST
Partly cloudy
Partly cloudy
 Wind from NW
Wind: NW 13 mph , 20 km/h, Gust: 21 mph , 33 km/h
Temperature: 43°F , 6°C
Wind Chill: 36°F , 2°C
Dew Point: 32°F , 0°C
Humidity: 66%
Barometer: 30.10 inHg , 1019.3 hPa
Clouds: Partly cloudy
Visibility: 10 miles , 16 km
Cloud details: Partly cloudy 1500 ft
2020/01/22 14:35 KOBE 221435Z AUTO 32011G18KT 10SM SCT015 06/00 A3010 RMK AO2
 
KFPR - Fort Pierce, Florida, USA
Distance from station: NNW 66mi, 106km
Updated: Wed, 22-Jan-2020 8:53am EST
Partly cloudy
Partly cloudy
 Wind from NW
Wind: NW 14 mph , 22 km/h, Gust: 24 mph , 39 km/h
Temperature: 45°F , 7°C
Wind Chill: 39°F , 4°C
Dew Point: 32°F , 0°C
Humidity: 61%
Barometer: 30.06 inHg , 1017.9 hPa
Clouds: Partly cloudy
Visibility: 10 miles , 16 km
Cloud details: Few Clouds 1900 ft
Partly cloudy 9000 ft
2020/01/22 13:53 KFPR 221353Z 31012G21KT 10SM FEW019 SCT090 07/00 A3006 RMK AO2 SLP180 T00720000
KTMB - Miami/Tamiami, Florida, USA
Distance from station: SSW 66mi, 106km
Updated: Wed, 22-Jan-2020 8:53am EST
Clear
Clear
 Wind from NNW
Wind: NNW 21 mph , 33 km/h
Temperature: 43°F , 6°C
Wind Chill: 34°F , 1°C
Dew Point: 32°F , 0°C
Humidity: 66%
Barometer: 30.10 inHg , 1019.3 hPa
Clouds: Clear
2020/01/22 13:53 KTMB 221353Z 33018KT CLR 06/00 A3010 RMK AO2 SLP191 T00610000
 
KVRB - Vero Beach, Florida, USA
Distance from station: NNW 76mi, 123km
Updated: Wed, 22-Jan-2020 8:53am EST
Few Clouds
Few Clouds
 Wind from NW
Wind: NW 17 mph , 28 km/h, Gust: 26 mph , 43 km/h
Temperature: 45°F , 7°C
Wind Chill: 38°F , 3°C
Dew Point: 34°F , 1°C
Humidity: 66%
Barometer: 30.07 inHg , 1018.3 hPa
Clouds: Few Clouds
Visibility: 10 miles , 16 km
Cloud details: Few Clouds 1900 ft
2020/01/22 13:53 KVRB 221353Z 31015G23KT 10SM FEW019 07/01 A3007
KHST - Homestead Afb, Florida, USA
Distance from station: S 77mi, 124km
Updated: Wed, 22-Jan-2020 8:56am EST
Clear
Clear
 Wind from NW
Wind: NW 12 mph , 19 km/h, Gust: 21 mph , 33 km/h
Temperature: 43°F , 6°C
Wind Chill: 37°F , 3°C
Dew Point: 30°F , -1°C
Humidity: 61%
Barometer: 30.07 inHg , 1018.3 hPa
Clouds: Clear
Visibility: 10 miles , 16 km
2020/01/22 13:56 KHST 221356Z AUTO 31010G18KT 10SM CLR 06/M01 A3007 RMK AO2 SLP186 T00591010 $
 
KIMM - Immokalee, Florida, USA
Distance from station: W 77mi, 124km
Updated: Wed, 22-Jan-2020 9:15am EST
Clear
Clear
 Wind from NNW
Wind: NNW 13 mph , 20 km/h, Gust: 20 mph , 31 km/h
Temperature: 43°F , 6°C
Wind Chill: 36°F , 2°C
Dew Point: 27°F , -3°C
Humidity: 53%
Barometer: 30.17 inHg , 1021.7 hPa
Clouds: Clear
Visibility: 10 miles , 16 km
2020/01/22 14:15 KIMM 221415Z AUTO 33011G17KT 10SM CLR 06/M03 A3017 RMK AO2
MYGF - Freeport Intl A, Bahamas
Distance from station: E 90mi, 145km
Updated: Wed, 22-Jan-2020 9:00am EST
Mostly cloudy
Mostly cloudy
 Wind from NNW
Wind: NNW 25 mph , 41 km/h
Temperature: 63°F , 17°C
Dew Point: 55°F , 13°C
Humidity: 77%
Barometer: 29.93 inHg , 1013.5 hPa
Clouds: Mostly cloudy
Visibility: 6 miles , 10 km
Cloud details: Partly cloudy 2000 ft
Mostly cloudy 4000 ft
2020/01/22 14:00 MYGF 221400Z 33022KT 9999 SCT020 BKN040 17/13 A2993
 
KSEF - Sebring, Florida, USA
Distance from station: NW 95mi, 153km
Updated: Wed, 22-Jan-2020 9:15am EST
Partly cloudy
Partly cloudy
 Wind from NNW
Wind: NNW 18 mph , 30 km/h
Temperature: 41°F , 5°C
Wind Chill: 32°F , 0°C
Dew Point: 28°F , -2°C
Humidity: 61%
Barometer: 30.16 inHg , 1021.3 hPa
Clouds: Partly cloudy
Visibility: 10 miles , 16 km
Cloud details: Partly cloudy 1500 ft
2020/01/22 14:15 KSEF 221415Z AUTO 33016KT 10SM SCT015 05/M02 A3016 RMK AO2 T00521024
KRSW - Fort Myers, Florida, USA
Distance from station: W 98mi, 158km
Updated: Wed, 22-Jan-2020 8:53am EST
Clear
Clear
 Wind from N
Wind: N 10 mph , 17 km/h, Gust: 17 mph , 28 km/h
Temperature: 41°F , 5°C
Wind Chill: 35°F , 2°C
Dew Point: 27°F , -3°C
Humidity: 57%
Barometer: 30.18 inHg , 1022 hPa
Clouds: Clear
Visibility: 10 miles , 16 km
2020/01/22 13:53 KRSW 221353Z 36009G15KT 10SM CLR 05/M03 A3018 RMK AO2 SLP216 T00501033